Terminal Aerodrome Forecast
Issued by NWS Louisville, KY

Home | Current Version | Previous Version | Text Only | Print | Product List | Glossary On
Versions: 1 2 3 4 5 6 7 8 9 10 11 12 13
056
FTUS43 KLMK 220520
TAFSDF
TAF
KSDF 220520Z 2206/2312 01013KT P6SM SCT100
     FM221500 04012KT P6SM FEW250=

USA.gov is the U.S. government's official web portal to all federal, state and local government web resources and services.